createdAt,value
2023-03-29T00:00:38.909Z,8.10
2023-03-29T00:03:06.837Z,8.10
2023-03-29T00:05:35.156Z,8.10
2023-03-29T00:08:04.386Z,8.10
2023-03-29T00:10:33.653Z,8.10
2023-03-29T00:13:02.373Z,8.10
2023-03-29T00:15:30.057Z,8.10
2023-03-29T00:17:58.172Z,8.10
2023-03-29T00:20:26.000Z,8.10
2023-03-29T00:22:53.595Z,8.10
2023-03-29T00:25:21.407Z,8.10
2023-03-29T00:27:49.068Z,8.00
2023-03-29T00:30:21.695Z,8.00
2023-03-29T00:32:49.730Z,7.90
2023-03-29T00:35:17.790Z,7.80
2023-03-29T00:37:47.310Z,7.70
2023-03-29T00:40:15.501Z,7.70
2023-03-29T00:42:46.464Z,7.60
2023-03-29T00:45:19.028Z,7.50
2023-03-29T00:47:57.082Z,7.40
2023-03-29T00:50:34.041Z,7.30
2023-03-29T00:53:06.283Z,7.20
2023-03-29T00:55:39.190Z,7.20
2023-03-29T00:58:10.060Z,7.00
2023-03-29T01:00:45.667Z,7.00
2023-03-29T01:03:24.668Z,6.90
2023-03-29T01:06:07.746Z,6.90
2023-03-29T01:08:43.108Z,6.80
2023-03-29T01:11:39.789Z,6.90
2023-03-29T01:14:35.249Z,6.90
2023-03-29T01:17:04.568Z,7.00
2023-03-29T01:19:47.768Z,7.10
2023-03-29T01:22:28.377Z,7.20
2023-03-29T01:25:07.147Z,7.30
2023-03-29T01:27:55.450Z,7.40
2023-03-29T01:30:34.664Z,7.50
2023-03-29T01:33:11.515Z,7.50
2023-03-29T01:35:46.808Z,7.60
2023-03-29T01:38:20.829Z,7.60
2023-03-29T01:40:48.475Z,7.50
2023-03-29T01:43:34.097Z,7.50
2023-03-29T01:46:08.126Z,7.50
2023-03-29T01:48:41.995Z,7.50
2023-03-29T01:51:18.041Z,7.50
2023-03-29T01:53:51.278Z,7.50
2023-03-29T01:56:22.988Z,7.60
2023-03-29T01:58:57.126Z,7.40
2023-03-29T02:01:28.265Z,7.60
2023-03-29T02:04:03.056Z,7.60
2023-03-29T02:06:36.054Z,7.50
2023-03-29T02:09:05.020Z,7.60
2023-03-29T02:11:33.209Z,7.50
2023-03-29T02:14:02.433Z,7.60
2023-03-29T02:16:36.363Z,7.60
2023-03-29T02:19:05.205Z,7.60
2023-03-29T02:21:53.393Z,7.70
2023-03-29T02:24:26.312Z,7.70
2023-03-29T02:26:54.163Z,7.60
2023-03-29T02:29:22.827Z,7.80
2023-03-29T02:31:58.681Z,7.80
2023-03-29T02:34:37.643Z,7.90
2023-03-29T02:37:11.793Z,8.00
2023-03-29T02:39:41.115Z,8.00
2023-03-29T02:42:10.121Z,8.00
2023-03-29T02:44:41.409Z,8.10
2023-03-29T02:47:43.837Z,8.10
2023-03-29T02:50:12.067Z,8.20
2023-03-29T02:52:45.484Z,8.30
2023-03-29T02:55:17.319Z,8.30
2023-03-29T02:57:44.921Z,8.30
2023-03-29T03:00:14.638Z,8.30
2023-03-29T03:02:42.893Z,8.30
2023-03-29T03:05:11.373Z,8.30
2023-03-29T03:07:40.631Z,8.30
2023-03-29T03:10:10.322Z,8.30
2023-03-29T03:12:38.981Z,8.30
2023-03-29T03:15:07.370Z,8.30
2023-03-29T03:17:40.096Z,8.40
2023-03-29T03:20:13.011Z,8.40
2023-03-29T03:22:49.144Z,8.40
2023-03-29T03:25:19.568Z,8.40
2023-03-29T03:27:50.411Z,8.50
2023-03-29T03:30:21.622Z,8.50
2023-03-29T03:33:08.444Z,8.50
2023-03-29T03:35:57.244Z,8.50
2023-03-29T03:38:25.427Z,8.60
2023-03-29T03:40:59.432Z,8.60
2023-03-29T03:43:28.289Z,8.60
2023-03-29T03:45:57.501Z,8.60
2023-03-29T03:48:27.152Z,8.60
2023-03-29T03:51:00.119Z,8.60
2023-03-29T03:53:33.817Z,8.60
2023-03-29T03:56:29.943Z,8.60
2023-03-29T03:59:03.545Z,8.60
2023-03-29T04:01:37.774Z,8.60
2023-03-29T04:04:14.565Z,8.60
2023-03-29T04:06:53.017Z,8.60
2023-03-29T04:09:26.644Z,8.60
2023-03-29T04:12:11.231Z,8.60
2023-03-29T04:14:40.750Z,8.60
2023-03-29T04:17:14.281Z,8.60
2023-03-29T04:19:58.188Z,8.60
2023-03-29T04:22:28.502Z,8.60
2023-03-29T04:24:56.259Z,8.60
2023-03-29T04:27:36.301Z,8.70
2023-03-29T04:30:10.683Z,8.70
2023-03-29T04:33:02.873Z,8.70
2023-03-29T04:35:31.562Z,8.70
2023-03-29T04:37:59.385Z,8.70
2023-03-29T04:40:27.411Z,8.80
2023-03-29T04:43:24.072Z,8.80
2023-03-29T04:46:08.402Z,8.80
2023-03-29T04:48:59.130Z,8.90
2023-03-29T04:54:13.692Z,8.90
2023-03-29T04:57:00.398Z,9.00
2023-03-29T04:59:56.067Z,9.00
2023-03-29T05:02:47.850Z,9.00
2023-03-29T05:05:16.280Z,9.10
2023-03-29T05:07:46.039Z,9.10
2023-03-29T05:10:18.838Z,9.10
2023-03-29T05:12:46.978Z,9.20
2023-03-29T05:15:14.901Z,9.20
2023-03-29T05:17:42.531Z,9.20
2023-03-29T05:20:15.986Z,9.20
2023-03-29T05:22:45.954Z,9.20
2023-03-29T05:25:23.097Z,9.20
2023-03-29T05:27:50.730Z,9.20
2023-03-29T05:30:18.358Z,9.30
2023-03-29T05:33:05.802Z,9.30
2023-03-29T05:35:36.045Z,9.30
2023-03-29T05:38:06.906Z,9.40
2023-03-29T05:40:36.193Z,9.40
2023-03-29T05:43:20.503Z,9.40
2023-03-29T05:45:48.633Z,9.40
2023-03-29T05:48:17.235Z,9.40
2023-03-29T05:50:49.488Z,9.40
2023-03-29T05:53:23.558Z,9.50
2023-03-29T05:55:51.825Z,9.50
2023-03-29T05:58:21.821Z,9.50
2023-03-29T06:00:50.374Z,9.50
2023-03-29T06:03:34.878Z,9.40
2023-03-29T06:06:03.915Z,9.50
2023-03-29T06:08:35.001Z,9.50
2023-03-29T06:11:13.567Z,9.50
2023-03-29T06:14:04.674Z,9.50
2023-03-29T06:16:32.870Z,9.50
2023-03-29T06:19:00.550Z,9.50
2023-03-29T06:21:31.565Z,9.50
2023-03-29T06:24:00.695Z,9.60
2023-03-29T06:26:33.206Z,9.60
2023-03-29T06:29:01.064Z,9.60
2023-03-29T06:31:30.107Z,9.70
2023-03-29T06:33:58.801Z,9.60
2023-03-29T06:36:55.011Z,9.70
2023-03-29T06:39:23.620Z,9.70
2023-03-29T06:42:20.170Z,9.70
2023-03-29T06:45:23.269Z,9.80
2023-03-29T06:47:55.192Z,9.80
2023-03-29T06:50:26.253Z,9.80
2023-03-29T06:53:15.689Z,9.80
2023-03-29T06:55:46.160Z,9.90
2023-03-29T06:58:41.087Z,9.90
2023-03-29T07:01:28.552Z,10.00
2023-03-29T07:04:17.654Z,10.00
2023-03-29T07:07:20.023Z,10.00
2023-03-29T07:09:55.540Z,10.00
2023-03-29T07:13:02.192Z,10.10
2023-03-29T07:15:30.133Z,10.10
2023-03-29T07:18:17.240Z,10.10
2023-03-29T07:20:45.426Z,10.10
2023-03-29T07:23:13.239Z,10.10
2023-03-29T07:25:41.175Z,10.10
2023-03-29T07:28:09.233Z,10.10
2023-03-29T07:30:37.440Z,10.20
2023-03-29T07:33:24.328Z,10.20
2023-03-29T07:35:59.205Z,10.20
2023-03-29T07:38:27.504Z,10.20
2023-03-29T07:41:10.776Z,10.30
2023-03-29T07:43:52.009Z,10.30
2023-03-29T07:46:25.163Z,10.40
2023-03-29T07:48:53.326Z,10.40
2023-03-29T07:51:21.532Z,10.40
2023-03-29T07:53:52.441Z,10.40
2023-03-29T07:56:47.803Z,10.40
2023-03-29T07:59:16.589Z,10.40
2023-03-29T08:01:48.700Z,10.40
2023-03-29T08:04:26.739Z,10.50
2023-03-29T08:07:14.860Z,10.40
2023-03-29T08:09:52.735Z,10.50
2023-03-29T08:12:25.172Z,10.50
2023-03-29T08:14:53.469Z,10.50
2023-03-29T08:17:29.224Z,10.50
2023-03-29T08:19:58.432Z,10.50
2023-03-29T08:22:26.086Z,10.50
2023-03-29T08:25:07.319Z,10.60
2023-03-29T08:27:40.322Z,10.60
2023-03-29T08:30:11.719Z,10.60
2023-03-29T08:32:40.894Z,10.60
2023-03-29T08:35:10.448Z,10.60
2023-03-29T08:37:52.911Z,10.70
2023-03-29T08:40:24.743Z,10.70
2023-03-29T08:43:42.574Z,10.60
2023-03-29T08:46:35.183Z,10.70
2023-03-29T08:49:25.723Z,10.60
2023-03-29T08:51:59.688Z,10.70
2023-03-29T08:54:41.072Z,10.70
2023-03-29T08:57:19.152Z,10.70
2023-03-29T08:59:53.638Z,10.70
2023-03-29T09:02:26.215Z,10.80
2023-03-29T09:05:08.748Z,10.80
2023-03-29T09:07:45.302Z,10.90
2023-03-29T09:10:17.781Z,10.90
2023-03-29T09:13:01.865Z,11.00
2023-03-29T09:15:56.169Z,11.00
2023-03-29T09:19:02.624Z,11.00
2023-03-29T09:21:49.474Z,11.00
2023-03-29T09:24:27.232Z,11.10
2023-03-29T09:27:05.715Z,11.10
2023-03-29T09:30:06.140Z,11.10
2023-03-29T09:33:05.342Z,11.10
2023-03-29T09:36:19.652Z,11.10
2023-03-29T09:38:54.586Z,11.10
2023-03-29T09:41:50.412Z,11.10
2023-03-29T09:44:30.922Z,11.10
2023-03-29T09:47:15.336Z,11.00
2023-03-29T09:49:47.937Z,11.10
2023-03-29T09:52:17.630Z,11.10
2023-03-29T09:54:56.617Z,11.10
2023-03-29T09:57:50.366Z,11.00
2023-03-29T10:00:22.424Z,11.10
2023-03-29T10:02:57.124Z,11.00
2023-03-29T10:05:37.270Z,11.10
2023-03-29T10:08:20.277Z,11.10
2023-03-29T10:10:48.750Z,11.20
2023-03-29T10:13:42.754Z,11.10
2023-03-29T10:16:25.876Z,11.10
2023-03-29T10:18:54.745Z,11.10
2023-03-29T10:21:23.765Z,11.10
2023-03-29T10:24:00.153Z,11.10
2023-03-29T10:26:32.765Z,11.10
2023-03-29T10:29:06.193Z,11.10
2023-03-29T10:31:38.139Z,11.10
2023-03-29T10:34:06.627Z,11.10
2023-03-29T10:36:34.845Z,11.10
2023-03-29T10:39:06.178Z,11.10
2023-03-29T10:41:35.755Z,11.20
2023-03-29T10:44:03.728Z,11.10
2023-03-29T10:46:40.390Z,11.10
2023-03-29T10:49:25.648Z,11.10
2023-03-29T10:51:53.428Z,11.20
2023-03-29T10:54:26.118Z,11.20
2023-03-29T10:56:59.197Z,11.20
2023-03-29T10:59:40.070Z,11.20
2023-03-29T11:02:13.740Z,11.30
2023-03-29T11:05:12.437Z,11.30
2023-03-29T11:08:01.726Z,11.40
2023-03-29T11:10:46.304Z,11.40
2023-03-29T11:13:34.968Z,11.50
2023-03-29T11:16:12.012Z,11.60
2023-03-29T11:18:39.795Z,11.60
2023-03-29T11:21:39.762Z,11.60
2023-03-29T11:24:07.254Z,11.60
2023-03-29T11:27:00.689Z,11.60
2023-03-29T11:29:33.987Z,11.60
2023-03-29T11:32:14.068Z,11.50
2023-03-29T11:34:58.229Z,11.50
2023-03-29T11:37:33.233Z,10.80
2023-03-29T11:40:22.030Z,11.50
2023-03-29T11:42:54.268Z,11.50
2023-03-29T11:45:40.048Z,11.50
2023-03-29T11:48:17.594Z,11.50
2023-03-29T11:51:17.791Z,11.50
2023-03-29T11:54:04.184Z,11.50
2023-03-29T11:56:44.492Z,11.50
2023-03-29T11:59:23.144Z,11.50
2023-03-29T12:01:58.229Z,11.60
2023-03-29T12:04:44.667Z,11.60
2023-03-29T12:07:36.936Z,11.70
2023-03-29T12:10:17.216Z,11.70
2023-03-29T12:13:02.150Z,11.70
2023-03-29T12:15:52.710Z,14.80
2023-03-29T12:18:43.675Z,11.80
2023-03-29T12:21:20.871Z,11.90
2023-03-29T12:23:51.944Z,11.90
2023-03-29T12:26:53.951Z,11.90
2023-03-29T12:29:36.417Z,12.00
2023-03-29T12:32:26.592Z,12.00
2023-03-29T12:36:04.579Z,12.10
2023-03-29T12:39:04.455Z,14.70
2023-03-29T12:41:51.983Z,12.30
2023-03-29T12:44:51.698Z,12.40
2023-03-29T12:47:27.808Z,12.70
2023-03-29T12:49:58.173Z,12.70
2023-03-29T12:52:32.774Z,12.80
2023-03-29T12:55:04.505Z,12.80
2023-03-29T12:57:45.074Z,12.80
2023-03-29T13:00:20.691Z,12.80
2023-03-29T13:03:05.010Z,12.80
2023-03-29T13:05:36.436Z,13.00
2023-03-29T13:08:28.076Z,13.00
2023-03-29T13:10:56.857Z,13.00
2023-03-29T13:13:29.754Z,13.00
2023-03-29T13:16:19.135Z,13.00
2023-03-29T13:19:00.317Z,13.00
2023-03-29T13:22:11.181Z,13.00
2023-03-29T13:25:08.452Z,13.00
2023-03-29T13:27:48.893Z,13.00
2023-03-29T13:30:54.184Z,13.00
2023-03-29T13:33:41.466Z,13.00
2023-03-29T13:36:47.441Z,13.00
2023-03-29T13:39:29.554Z,13.00
2023-03-29T13:42:21.655Z,13.00
2023-03-29T13:44:49.735Z,13.10
2023-03-29T13:47:37.968Z,13.10
2023-03-29T13:50:20.748Z,13.20
2023-03-29T13:53:02.224Z,13.30
2023-03-29T13:55:34.362Z,13.40
2023-03-29T13:58:32.430Z,13.70
2023-03-29T14:01:09.292Z,14.20
2023-03-29T14:03:47.218Z,14.80
2023-03-29T14:06:21.812Z,15.10
2023-03-29T14:08:53.159Z,15.10
2023-03-29T14:11:29.113Z,15.00
2023-03-29T14:14:02.928Z,14.90
2023-03-29T14:16:37.044Z,14.80
2023-03-29T14:19:11.944Z,14.70
2023-03-29T14:21:41.640Z,14.50
2023-03-29T14:24:12.855Z,14.50
2023-03-29T14:26:44.812Z,14.30
2023-03-29T14:29:12.485Z,14.20
2023-03-29T14:31:42.110Z,14.20
2023-03-29T14:34:18.527Z,14.10
2023-03-29T14:36:54.041Z,14.10
2023-03-29T14:39:23.354Z,14.00
2023-03-29T14:41:57.113Z,14.00
2023-03-29T14:44:28.679Z,14.00
2023-03-29T14:46:56.775Z,13.90
2023-03-29T14:49:24.750Z,13.90
2023-03-29T14:51:54.846Z,13.80
2023-03-29T14:54:24.148Z,13.80
2023-03-29T14:56:53.091Z,13.80
2023-03-29T14:59:35.617Z,13.70
2023-03-29T15:02:04.548Z,13.70
2023-03-29T15:04:34.258Z,13.60
2023-03-29T15:07:05.935Z,13.70
2023-03-29T15:09:35.489Z,13.60
2023-03-29T15:12:04.613Z,13.60
2023-03-29T15:14:38.112Z,13.60
2023-03-29T15:17:36.325Z,13.60
2023-03-29T15:20:21.570Z,13.70
2023-03-29T15:23:00.167Z,13.90
2023-03-29T15:25:33.163Z,13.90
2023-03-29T15:28:01.754Z,14.00
2023-03-29T15:30:36.625Z,14.10
2023-03-29T15:33:16.402Z,14.10
2023-03-29T15:35:49.156Z,14.10
2023-03-29T15:38:16.933Z,14.10
2023-03-29T15:40:44.660Z,14.10
2023-03-29T15:43:12.809Z,14.20
2023-03-29T15:45:42.959Z,14.20
2023-03-29T15:48:19.896Z,14.50
2023-03-29T15:50:47.785Z,14.50
2023-03-29T15:53:17.177Z,14.60
2023-03-29T15:55:48.836Z,14.60
2023-03-29T15:58:19.780Z,14.60
2023-03-29T16:00:55.354Z,14.70
2023-03-29T16:03:23.951Z,14.70
2023-03-29T16:05:56.622Z,14.70
2023-03-29T16:08:25.524Z,14.70
2023-03-29T16:10:53.262Z,14.70
2023-03-29T16:13:21.087Z,14.60
2023-03-29T16:15:48.865Z,14.60
2023-03-29T16:18:16.411Z,14.50
2023-03-29T16:20:44.020Z,14.50
2023-03-29T16:23:12.097Z,14.50
2023-03-29T16:25:40.500Z,14.50
2023-03-29T16:28:09.138Z,14.50
2023-03-29T16:30:37.616Z,14.50
2023-03-29T16:33:08.674Z,14.50
2023-03-29T16:35:40.051Z,14.50
2023-03-29T16:38:09.122Z,14.50
2023-03-29T16:40:37.248Z,14.50
2023-03-29T16:43:05.270Z,14.60
2023-03-29T16:45:32.850Z,14.60
2023-03-29T16:48:00.599Z,14.50
2023-03-29T16:50:28.395Z,14.50
2023-03-29T16:55:24.735Z,14.50
2023-03-29T16:57:52.624Z,14.60
2023-03-29T17:00:21.863Z,14.60
2023-03-29T17:02:49.722Z,14.60
2023-03-29T17:05:20.872Z,14.70
2023-03-29T17:07:48.478Z,14.60
2023-03-29T17:10:16.509Z,14.60
2023-03-29T17:12:44.278Z,14.60
2023-03-29T17:15:11.897Z,14.60
2023-03-29T17:17:39.567Z,14.60
2023-03-29T17:20:12.302Z,14.60
2023-03-29T17:22:40.723Z,14.60
2023-03-29T17:25:08.944Z,14.50
2023-03-29T17:27:38.135Z,14.50
2023-03-29T17:30:06.933Z,14.50
2023-03-29T17:32:35.657Z,14.50
2023-03-29T17:35:03.945Z,14.50
2023-03-29T17:37:31.807Z,14.50
2023-03-29T17:39:59.341Z,14.40
2023-03-29T17:42:27.470Z,14.30
2023-03-29T17:44:55.139Z,14.30
2023-03-29T17:47:22.672Z,14.20
2023-03-29T17:49:51.107Z,14.10
2023-03-29T17:52:19.324Z,14.10
2023-03-29T17:54:51.604Z,13.90
2023-03-29T17:57:19.478Z,14.00
2023-03-29T17:59:47.023Z,13.90
2023-03-29T18:02:23.356Z,13.90
2023-03-29T18:04:51.965Z,13.80
2023-03-29T18:07:19.564Z,13.70
2023-03-29T18:09:47.276Z,13.70
2023-03-29T18:12:15.068Z,13.70
2023-03-29T18:14:42.631Z,13.60
2023-03-29T18:17:10.358Z,13.60
2023-03-29T18:19:37.930Z,13.50
2023-03-29T18:22:05.693Z,13.50
2023-03-29T18:24:33.370Z,13.50
2023-03-29T18:27:03.164Z,13.40
2023-03-29T18:29:30.786Z,13.40
2023-03-29T18:32:02.818Z,13.40
2023-03-29T18:34:31.281Z,13.40
2023-03-29T18:36:58.882Z,13.30
2023-03-29T18:39:27.496Z,13.30
2023-03-29T18:41:56.038Z,13.20
2023-03-29T18:44:27.496Z,13.20
2023-03-29T18:46:55.457Z,13.20
2023-03-29T18:49:23.171Z,13.10
2023-03-29T18:51:51.191Z,13.10
2023-03-29T18:54:18.762Z,13.10
2023-03-29T18:56:47.435Z,13.00
2023-03-29T18:59:15.720Z,13.00
2023-03-29T19:01:43.390Z,13.00
2023-03-29T19:04:11.137Z,13.00
2023-03-29T19:06:38.791Z,12.90
2023-03-29T19:09:06.498Z,12.90
2023-03-29T19:11:36.089Z,15.10
2023-03-29T19:14:06.945Z,12.90
2023-03-29T19:16:34.716Z,12.80
2023-03-29T19:19:02.900Z,12.80
2023-03-29T19:21:31.683Z,12.80
2023-03-29T19:24:00.996Z,12.80
2023-03-29T19:26:29.530Z,12.70
2023-03-29T19:28:57.146Z,12.70
2023-03-29T19:31:25.099Z,12.70
2023-03-29T19:33:52.674Z,12.60
2023-03-29T19:36:22.330Z,12.70
2023-03-29T19:38:50.119Z,12.60
2023-03-29T19:41:17.925Z,12.60
2023-03-29T19:43:46.330Z,13.30
2023-03-29T19:46:17.997Z,12.60
2023-03-29T19:48:47.253Z,12.60
2023-03-29T19:51:14.836Z,12.50
2023-03-29T19:53:42.602Z,12.40
2023-03-29T19:56:16.888Z,12.40
2023-03-29T19:58:44.675Z,12.30
2023-03-29T20:01:12.361Z,12.20
2023-03-29T20:03:42.265Z,12.20
2023-03-29T20:06:14.033Z,12.20
2023-03-29T20:08:45.071Z,12.20
2023-03-29T20:11:14.307Z,12.10
2023-03-29T20:13:43.627Z,12.00
2023-03-29T20:16:14.803Z,12.00
2023-03-29T20:18:44.913Z,12.00
2023-03-29T20:21:19.312Z,12.00
2023-03-29T20:23:47.214Z,12.00
2023-03-29T20:26:15.392Z,11.90
2023-03-29T20:28:43.060Z,11.90
2023-03-29T20:31:11.061Z,11.90
2023-03-29T20:33:39.862Z,11.80
2023-03-29T20:36:08.789Z,11.80
2023-03-29T20:38:36.537Z,11.80
2023-03-29T20:41:07.214Z,11.70
2023-03-29T20:43:37.360Z,11.70
2023-03-29T20:46:06.021Z,11.70
2023-03-29T20:48:33.669Z,11.80
2023-03-29T20:51:03.362Z,11.60
2023-03-29T20:53:34.555Z,11.60
2023-03-29T20:56:05.145Z,11.60
2023-03-29T20:58:32.708Z,11.60
2023-03-29T21:01:00.322Z,11.50
2023-03-29T21:03:28.871Z,11.50
2023-03-29T21:05:58.311Z,11.50
2023-03-29T21:10:56.785Z,11.50
2023-03-29T21:13:26.919Z,11.50
2023-03-29T21:15:54.708Z,11.50
2023-03-29T21:20:50.932Z,11.50
2023-03-29T21:23:19.396Z,11.50
2023-03-29T21:25:46.940Z,11.50
2023-03-29T21:28:14.615Z,11.50
2023-03-29T21:30:42.400Z,11.50
2023-03-29T21:33:10.116Z,11.50
2023-03-29T21:35:37.854Z,11.50
2023-03-29T21:38:08.152Z,11.50
2023-03-29T21:40:39.010Z,11.40
2023-03-29T21:43:07.037Z,11.40
2023-03-29T21:45:34.826Z,11.40
2023-03-29T21:50:33.784Z,11.40
2023-03-29T21:53:01.996Z,11.30
2023-03-29T21:55:29.585Z,11.30
2023-03-29T21:57:57.351Z,11.30
2023-03-29T22:00:25.744Z,11.30
2023-03-29T22:02:57.081Z,11.40
2023-03-29T22:05:26.326Z,11.30
2023-03-29T22:07:53.884Z,11.30
2023-03-29T22:10:22.976Z,11.30
2023-03-29T22:12:51.917Z,11.40
2023-03-29T22:15:20.717Z,11.30
2023-03-29T22:17:48.600Z,11.30
2023-03-29T22:20:18.528Z,11.30
2023-03-29T22:22:51.329Z,11.30
2023-03-29T22:25:20.371Z,11.20
2023-03-29T22:27:48.572Z,11.30
2023-03-29T22:30:17.128Z,11.30
2023-03-29T22:32:44.956Z,11.30
2023-03-29T22:35:12.744Z,11.30
2023-03-29T22:37:42.146Z,11.30
2023-03-29T22:40:12.099Z,11.20
2023-03-29T22:42:40.309Z,11.20
2023-03-29T22:45:10.726Z,11.20
2023-03-29T22:47:38.405Z,11.20
2023-03-29T22:50:07.217Z,11.10
2023-03-29T22:52:34.810Z,11.10
2023-03-29T22:55:02.439Z,11.10
2023-03-29T22:57:30.401Z,11.10
2023-03-29T22:59:57.939Z,11.10
2023-03-29T23:02:27.754Z,11.10
2023-03-29T23:04:58.507Z,11.10
2023-03-29T23:07:28.209Z,11.10
2023-03-29T23:10:00.944Z,11.00
2023-03-29T23:12:28.756Z,11.50
2023-03-29T23:14:56.348Z,11.00
2023-03-29T23:17:24.084Z,11.00
2023-03-29T23:19:54.487Z,11.00
2023-03-29T23:22:22.656Z,11.00
2023-03-29T23:24:50.299Z,11.00
2023-03-29T23:27:21.261Z,11.00
2023-03-29T23:29:48.837Z,11.20
2023-03-29T23:32:16.420Z,11.00
2023-03-29T23:37:30.607Z,11.00
2023-03-29T23:39:58.132Z,10.90
2023-03-29T23:42:25.890Z,10.90
2023-03-29T23:44:53.473Z,10.90
2023-03-29T23:47:21.484Z,10.90
2023-03-29T23:49:49.067Z,10.90
2023-03-29T23:52:17.545Z,10.90
2023-03-29T23:54:45.056Z,10.80
2023-03-29T23:57:12.645Z,10.80
2023-03-29T23:59:40.394Z,10.90
